Time;durP1;ratioP1;P1;durP2;ratioP2;P2;SDS_P1;SDS_P2;PMS_P1;PMS_P2;Temp;Humidity;BMP_temperature;BMP_pressure;BME280_temperature;BME280_humidity;BME280_pressure;Samples;Min_cycle;Max_cycle;Signal;HPM_P1;HPM_P2
2021/12/07 00:01:39;;;;;;;4.30;2.55;;;;;;;;;;5069729;28;20048;-77
2021/12/07 00:04:04;;;;;;;6.63;2.75;;;;;;;;;;5085763;28;20063;-79
2021/12/07 00:06:30;;;;;;;7.03;3.05;;;;;;;;;;5092770;28;20468;-75
2021/12/07 00:08:56;;;;;;;4.63;2.58;;;;;;;;;;5091460;28;20046;-77
2021/12/07 00:11:26;;;;;;;4.30;2.20;;;;;;;;;;5089447;28;20039;-77
2021/12/07 00:13:52;;;;;;;5.15;2.53;;;;;;;;;;5091815;28;20410;-77
2021/12/07 00:16:19;;;;;;;7.30;2.90;;;;;;;;;;5092198;28;20030;-77
2021/12/07 00:18:44;;;;;;;4.25;2.72;;;;;;;;;;5090307;28;20074;-78
2021/12/07 00:21:11;;;;;;;5.05;2.50;;;;;;;;;;5090345;28;20059;-76
2021/12/07 00:23:37;;;;;;;5.80;2.53;;;;;;;;;;5090331;28;20051;-77
2021/12/07 00:26:04;;;;;;;3.78;2.45;;;;;;;;;;5090240;28;20480;-79
2021/12/07 00:28:29;;;;;;;4.13;2.45;;;;;;;;;;5089614;28;20039;-79
2021/12/07 00:30:57;;;;;;;7.90;3.17;;;;;;;;;;5083451;28;20520;-79
2021/12/07 00:35:50;;;;;;;5.22;2.70;;;;;;;;;;5081896;28;20027;-79
2021/12/07 00:38:18;;;;;;;6.07;3.03;;;;;;;;;;5082817;28;20115;-78
2021/12/07 00:40:44;;;;;;;5.95;2.90;;;;;;;;;;5082235;28;20424;-79
2021/12/07 00:43:10;;;;;;;6.00;3.10;;;;;;;;;;5083628;28;20062;-81
2021/12/07 00:45:36;;;;;;;8.68;2.85;;;;;;;;;;5080935;28;20033;-79
2021/12/07 00:48:03;;;;;;;5.00;2.70;;;;;;;;;;5081280;28;20488;-78
2021/12/07 00:50:29;;;;;;;4.53;2.58;;;;;;;;;;5083715;28;20061;-78
2021/12/07 00:52:55;;;;;;;4.88;2.42;;;;;;;;;;5082140;28;20468;-79
2021/12/07 00:55:26;;;;;;;4.05;2.50;;;;;;;;;;5082470;28;20019;-80
2021/12/07 00:57:53;;;;;;;4.90;2.78;;;;;;;;;;5081462;28;20157;-79
2021/12/07 01:00:20;;;;;;;4.78;2.55;;;;;;;;;;5081197;28;20380;-79
2021/12/07 01:02:45;;;;;;;5.00;2.33;;;;;;;;;;5081116;28;20395;-78
2021/12/07 01:05:19;;;;;;;3.55;2.30;;;;;;;;;;5057564;28;20044;-80
2021/12/07 01:26:37;;;;;;;5.00;2.30;;;;;;;;;;5072672;28;20032;-78
2021/12/07 01:29:03;;;;;;;5.88;2.67;;;;;;;;;;5072422;28;20162;-80
2021/12/07 01:31:48;;;;;;;4.65;2.20;;;;;;;;;;5072633;28;20020;-80
2021/12/07 01:37:32;;;;;;;4.47;2.42;;;;;;;;;;5071027;28;20438;-79
2021/12/07 02:01:05;;;;;;;4.47;2.20;;;;;;;;;;5070938;28;20037;-79
2021/12/07 02:03:30;;;;;;;4.53;2.63;;;;;;;;;;5072042;28;20527;-79
2021/12/07 02:05:56;;;;;;;4.60;3.05;;;;;;;;;;5054223;28;20131;-79
2021/12/07 02:08:22;;;;;;;4.43;2.65;;;;;;;;;;5070785;28;20037;-79
2021/12/07 02:10:51;;;;;;;5.47;3.33;;;;;;;;;;5070641;28;20067;-78
2021/12/07 02:14:14;;;;;;;7.68;2.85;;;;;;;;;;5054183;28;20037;-78
2021/12/07 02:16:09;;;;;;;5.63;2.80;;;;;;;;;;5053986;28;20048;-80
2021/12/07 02:18:35;;;;;;;8.95;3.00;;;;;;;;;;5054204;28;20032;-79
2021/12/07 02:21:20;;;;;;;7.00;3.00;;;;;;;;;;5072019;28;20055;-80
2021/12/07 02:23:51;;;;;;;5.22;2.42;;;;;;;;;;5054536;28;20068;-79
2021/12/07 02:26:19;;;;;;;4.50;2.10;;;;;;;;;;5054184;28;20400;-79
2021/12/07 02:28:45;;;;;;;4.78;2.28;;;;;;;;;;5070442;28;20119;-79
2021/12/07 02:31:11;;;;;;;7.43;2.80;;;;;;;;;;5054047;28;20044;-79
2021/12/07 02:33:38;;;;;;;4.32;2.58;;;;;;;;;;5070848;28;20032;-78
2021/12/07 02:36:04;;;;;;;6.68;2.63;;;;;;;;;;5056971;28;20029;-78
2021/12/07 02:38:30;;;;;;;3.72;2.50;;;;;;;;;;5057389;28;20149;-77
2021/12/07 02:40:56;;;;;;;7.45;3.40;;;;;;;;;;5057323;28;20037;-77
2021/12/07 02:43:21;;;;;;;4.53;2.63;;;;;;;;;;5073954;28;20043;-78
2021/12/07 02:45:47;;;;;;;5.10;2.55;;;;;;;;;;5057055;28;20079;-77
2021/12/07 02:48:13;;;;;;;10.65;2.75;;;;;;;;;;5073721;28;20037;-77
2021/12/07 02:50:38;;;;;;;6.03;2.47;;;;;;;;;;5073721;28;20040;-76
2021/12/07 02:53:04;;;;;;;4.72;2.35;;;;;;;;;;5057147;28;20040;-77
2021/12/07 02:55:32;;;;;;;4.60;2.83;;;;;;;;;;5073788;28;20395;-77
2021/12/07 02:57:58;;;;;;;4.82;2.70;;;;;;;;;;5057155;28;20105;-78
2021/12/07 03:00:33;;;;;;;4.68;2.30;;;;;;;;;;5073562;28;20039;-78
2021/12/07 03:03:07;;;;;;;5.13;2.85;;;;;;;;;;5056934;28;20039;-76
2021/12/07 03:08:40;;;;;;;6.22;2.53;;;;;;;;;;5073629;28;20067;-78
2021/12/07 03:27:23;;;;;;;4.43;2.47;;;;;;;;;;5074498;28;20044;-79
2021/12/07 03:29:50;;;;;;;5.43;2.65;;;;;;;;;;5073300;28;20043;-78
2021/12/07 03:32:16;;;;;;;4.03;2.50;;;;;;;;;;5056432;28;20126;-78
2021/12/07 03:34:43;;;;;;;7.45;3.03;;;;;;;;;;5073000;28;20036;-78
2021/12/07 03:37:09;;;;;;;4.15;2.45;;;;;;;;;;5072680;28;20368;-79
2021/12/07 03:39:34;;;;;;;6.68;2.60;;;;;;;;;;5073277;28;20040;-79
2021/12/07 03:42:01;;;;;;;4.97;2.58;;;;;;;;;;5072838;28;20114;-80
2021/12/07 03:44:26;;;;;;;5.65;2.67;;;;;;;;;;5072743;28;20127;-79
2021/12/07 03:46:52;;;;;;;6.00;2.65;;;;;;;;;;5072967;28;20082;-78
2021/12/07 03:49:17;;;;;;;5.30;2.78;;;;;;;;;;5072837;28;20391;-79
2021/12/07 03:51:43;;;;;;;7.22;3.13;;;;;;;;;;5089320;28;20024;-77
2021/12/07 03:54:09;;;;;;;9.15;3.53;;;;;;;;;;5076486;28;20036;-80
2021/12/07 03:56:34;;;;;;;6.55;3.30;;;;;;;;;;5092855;28;20441;-78
2021/12/07 03:59:00;;;;;;;6.68;2.83;;;;;;;;;;5076416;28;20471;-78
2021/12/07 04:01:26;;;;;;;5.47;2.95;;;;;;;;;;5092960;28;20036;-77
2021/12/07 04:03:54;;;;;;;8.32;2.92;;;;;;;;;;5071514;28;20032;-78
2021/12/07 04:06:20;;;;;;;5.15;2.55;;;;;;;;;;5068727;28;20468;-78
2021/12/07 04:08:46;;;;;;;4.72;2.40;;;;;;;;;;5068569;28;20407;-76
2021/12/07 04:11:15;;;;;;;6.90;2.75;;;;;;;;;;5068640;28;20097;-74
2021/12/07 04:13:40;;;;;;;6.28;2.50;;;;;;;;;;5068887;28;20391;-76
2021/12/07 04:16:08;;;;;;;5.00;2.38;;;;;;;;;;5051880;28;20040;-80
2021/12/07 04:18:33;;;;;;;6.93;2.65;;;;;;;;;;5068516;28;20029;-78
2021/12/07 04:21:01;;;;;;;6.07;2.28;;;;;;;;;;5051694;28;20043;-78
2021/12/07 04:23:27;;;;;;;5.32;2.25;;;;;;;;;;5068901;28;20045;-79
2021/12/07 04:25:52;;;;;;;6.30;2.40;;;;;;;;;;5069646;28;20079;-75
2021/12/07 04:28:18;;;;;;;5.53;2.45;;;;;;;;;;5070308;28;20039;-79
2021/12/07 04:30:43;;;;;;;3.50;1.90;;;;;;;;;;5069498;28;20037;-79
2021/12/07 04:33:09;;;;;;;6.72;2.30;;;;;;;;;;5069653;28;20039;-78
2021/12/07 04:35:36;;;;;;;4.15;2.33;;;;;;;;;;5051522;28;20609;-79
2021/12/07 04:38:01;;;;;;;3.33;2.03;;;;;;;;;;5069886;28;20075;-77
2021/12/07 04:40:28;;;;;;;4.78;2.05;;;;;;;;;;5068498;28;20110;-74
2021/12/07 04:42:53;;;;;;;5.07;2.40;;;;;;;;;;5068116;28;20036;-79
2021/12/07 04:45:53;;;;;;;5.45;2.30;;;;;;;;;;5068090;28;20040;-78
2021/12/07 04:58:58;;;;;;;7.30;1.98;;;;;;;;;;5050955;28;20507;-78
2021/12/07 05:01:24;;;;;;;6.45;2.30;;;;;;;;;;5069304;28;20017;-77
2021/12/07 05:03:52;;;;;;;5.32;2.67;;;;;;;;;;5051377;28;20123;-77
2021/12/07 05:06:20;;;;;;;4.88;2.30;;;;;;;;;;5050910;28;20127;-77
2021/12/07 05:08:55;;;;;;;5.63;2.00;;;;;;;;;;5050948;28;20146;-77
2021/12/07 05:13:58;;;;;;;4.07;1.65;;;;;;;;;;5068618;28;20087;-78
2021/12/07 05:16:40;;;;;;;3.60;2.08;;;;;;;;;;5068862;28;20392;-75
2021/12/07 05:24:48;;;;;;;6.05;2.42;;;;;;;;;;5066369;28;20029;-78
2021/12/07 05:37:58;;;;;;;4.85;2.10;;;;;;;;;;5065219;28;20045;-78
2021/12/07 05:40:24;;;;;;;5.97;2.78;;;;;;;;;;5047988;28;20566;-77
2021/12/07 05:42:49;;;;;;;4.43;2.67;;;;;;;;;;5066232;28;20071;-78
2021/12/07 05:45:20;;;;;;;5.10;2.35;;;;;;;;;;5066839;28;20131;-78
2021/12/07 05:47:45;;;;;;;5.75;2.78;;;;;;;;;;5050025;28;20064;-79
2021/12/07 05:50:13;;;;;;;4.78;2.60;;;;;;;;;;5067097;28;20070;-79
2021/12/07 05:52:38;;;;;;;6.25;2.47;;;;;;;;;;5068036;28;20036;-73
2021/12/07 05:55:05;;;;;;;5.10;2.63;;;;;;;;;;5068768;28;20365;-79
2021/12/07 05:57:31;;;;;;;5.70;2.38;;;;;;;;;;5067429;28;20531;-79
2021/12/07 05:59:56;;;;;;;6.35;2.92;;;;;;;;;;5068627;28;20100;-75
2021/12/07 06:02:21;;;;;;;5.68;3.15;;;;;;;;;;5068415;28;20486;-76
2021/12/07 06:04:47;;;;;;;7.53;3.20;;;;;;;;;;5068065;28;20071;-77
2021/12/07 06:07:12;;;;;;;7.97;2.70;;;;;;;;;;5068293;28;20086;-79
2021/12/07 06:09:38;;;;;;;4.57;2.72;;;;;;;;;;5070181;28;20032;-78
2021/12/07 06:12:03;;;;;;;6.72;3.30;;;;;;;;;;5072645;28;20038;-79
2021/12/07 06:14:33;;;;;;;5.97;2.55;;;;;;;;;;5070659;28;20039;-78
2021/12/07 06:16:59;;;;;;;10.18;2.72;;;;;;;;;;5071792;28;20043;-78
2021/12/07 06:19:24;;;;;;;5.20;2.55;;;;;;;;;;5071792;28;20470;-79
2021/12/07 06:21:50;;;;;;;4.90;2.60;;;;;;;;;;5071733;28;20041;-78
2021/12/07 06:24:15;;;;;;;4.63;2.72;;;;;;;;;;5070641;28;20198;-78
2021/12/07 06:26:40;;;;;;;5.57;2.45;;;;;;;;;;5071365;28;20126;-78
2021/12/07 06:29:06;;;;;;;9.57;3.20;;;;;;;;;;5071692;28;20035;-79
2021/12/07 06:31:31;;;;;;;8.68;2.80;;;;;;;;;;5071557;28;20434;-77
2021/12/07 06:33:57;;;;;;;6.35;2.97;;;;;;;;;;5071437;28;20024;-78
2021/12/07 06:36:24;;;;;;;5.53;2.80;;;;;;;;;;5071531;28;20035;-77
2021/12/07 06:38:50;;;;;;;10.82;2.90;;;;;;;;;;5071748;28;20063;-79
2021/12/07 06:41:15;;;;;;;6.68;2.28;;;;;;;;;;5054123;28;20036;-78
2021/12/07 06:43:40;;;;;;;5.45;2.20;;;;;;;;;;5071381;28;20498;-74
2021/12/07 06:46:06;;;;;;;4.72;1.90;;;;;;;;;;5070228;28;20610;-80
2021/12/07 06:48:31;;;;;;;4.55;2.05;;;;;;;;;;5069921;28;20029;-80
2021/12/07 06:50:57;;;;;;;9.05;2.83;;;;;;;;;;5069819;28;20392;-76
2021/12/07 06:53:22;;;;;;;4.35;2.38;;;;;;;;;;5071466;28;20361;-79
2021/12/07 06:55:48;;;;;;;7.95;2.45;;;;;;;;;;5070030;28;20411;-79
2021/12/07 06:58:13;;;;;;;5.53;2.30;;;;;;;;;;5069728;28;20044;-73
2021/12/07 07:00:39;;;;;;;4.30;2.28;;;;;;;;;;5071041;28;20021;-79
2021/12/07 07:03:05;;;;;;;5.10;2.13;;;;;;;;;;5071119;28;20529;-78
2021/12/07 07:05:30;;;;;;;6.55;2.25;;;;;;;;;;5068460;28;20534;-80
2021/12/07 07:07:56;;;;;;;6.20;2.65;;;;;;;;;;5066536;28;20048;-76
2021/12/07 07:10:22;;;;;;;7.13;2.67;;;;;;;;;;5070742;28;20021;-78
2021/12/07 07:12:49;;;;;;;10.55;3.47;;;;;;;;;;5070507;28;20071;-79
2021/12/07 07:15:16;;;;;;;6.57;2.92;;;;;;;;;;5052911;28;20068;-79
2021/12/07 07:17:41;;;;;;;5.60;3.20;;;;;;;;;;5070783;28;20046;-78
2021/12/07 07:20:08;;;;;;;5.80;2.63;;;;;;;;;;5070141;28;20036;-78
2021/12/07 07:22:34;;;;;;;7.55;3.53;;;;;;;;;;5052510;28;20392;-79
2021/12/07 07:24:59;;;;;;;5.53;2.45;;;;;;;;;;5070206;28;20036;-79
2021/12/07 07:27:25;;;;;;;6.05;2.83;;;;;;;;;;5070846;28;20025;-78
2021/12/07 07:29:51;;;;;;;5.38;2.60;;;;;;;;;;5070523;28;20033;-80
2021/12/07 07:32:16;;;;;;;4.95;2.38;;;;;;;;;;5070403;28;20047;-81
2021/12/07 07:34:42;;;;;;;3.83;2.25;;;;;;;;;;5068850;28;20241;-78
2021/12/07 07:37:07;;;;;;;9.75;4.72;;;;;;;;;;5070139;28;20034;-80
2021/12/07 07:39:33;;;;;;;7.68;3.00;;;;;;;;;;5070405;28;20676;-81
2021/12/07 07:41:59;;;;;;;6.93;2.63;;;;;;;;;;5068903;28;20082;-77
2021/12/07 07:44:37;;;;;;;4.38;2.15;;;;;;;;;;5068544;28;20086;-78
2021/12/07 07:47:03;;;;;;;7.07;2.40;;;;;;;;;;5070129;28;20044;-76
2021/12/07 07:49:28;;;;;;;4.10;2.50;;;;;;;;;;5052023;28;20090;-76
2021/12/07 07:51:53;;;;;;;4.05;2.42;;;;;;;;;;5051823;28;20102;-77
2021/12/07 07:54:19;;;;;;;4.95;2.70;;;;;;;;;;5070152;28;20163;-75
2021/12/07 07:56:44;;;;;;;5.35;2.80;;;;;;;;;;5069859;28;20033;-76
2021/12/07 07:59:10;;;;;;;4.80;2.80;;;;;;;;;;5068781;28;20044;-75
2021/12/07 08:01:35;;;;;;;6.97;3.05;;;;;;;;;;5069865;28;20055;-75
2021/12/07 08:04:01;;;;;;;5.78;2.72;;;;;;;;;;5068672;28;20483;-75
2021/12/07 08:06:27;;;;;;;5.75;2.38;;;;;;;;;;5069514;28;20168;-77
2021/12/07 08:08:53;;;;;;;5.05;2.83;;;;;;;;;;5069619;28;20029;-76
2021/12/07 08:11:18;;;;;;;5.95;2.80;;;;;;;;;;5069909;28;20058;-76
2021/12/07 08:13:43;;;;;;;7.05;3.22;;;;;;;;;;5068957;28;20054;-74
2021/12/07 08:16:15;;;;;;;6.78;3.40;;;;;;;;;;5068552;28;20119;-76
2021/12/07 08:18:48;;;;;;;6.82;2.92;;;;;;;;;;5042029;28;20044;-75
2021/12/07 08:21:14;;;;;;;5.10;3.10;;;;;;;;;;5069040;28;20135;-74
2021/12/07 08:23:40;;;;;;;7.75;3.60;;;;;;;;;;5065638;28;20041;-73
2021/12/07 08:26:06;;;;;;;4.43;2.83;;;;;;;;;;5069186;28;20415;-73
2021/12/07 08:28:32;;;;;;;6.10;3.20;;;;;;;;;;5069628;28;20396;-76
2021/12/07 08:30:57;;;;;;;6.05;3.88;;;;;;;;;;5068691;28;20033;-75
2021/12/07 08:33:23;;;;;;;5.53;3.10;;;;;;;;;;5068108;28;20032;-73
2021/12/07 08:35:48;;;;;;;4.63;2.53;;;;;;;;;;5068000;28;20028;-74
2021/12/07 08:38:14;;;;;;;5.93;3.00;;;;;;;;;;5069572;28;20035;-74
2021/12/07 08:40:39;;;;;;;6.30;2.72;;;;;;;;;;5069008;28;20032;-74
2021/12/07 08:43:06;;;;;;;4.80;2.90;;;;;;;;;;5069017;28;20460;-72
2021/12/07 08:45:31;;;;;;;4.95;2.50;;;;;;;;;;5069330;28;20032;-76
2021/12/07 08:47:58;;;;;;;8.43;3.30;;;;;;;;;;5069555;28;20807;-75
2021/12/07 08:50:25;;;;;;;4.60;2.65;;;;;;;;;;5068920;28;20037;-77
2021/12/07 08:52:52;;;;;;;5.70;2.83;;;;;;;;;;5050365;28;20036;-76
2021/12/07 09:00:47;;;;;;;5.70;2.78;;;;;;;;;;5067504;28;20036;-79
2021/12/07 09:03:13;;;;;;;5.80;3.00;;;;;;;;;;5067758;28;20035;-79
2021/12/07 09:05:39;;;;;;;4.60;2.80;;;;;;;;;;5067657;28;20040;-80
2021/12/07 09:08:04;;;;;;;6.63;2.92;;;;;;;;;;5067479;28;20055;-81
2021/12/07 09:10:30;;;;;;;4.07;2.42;;;;;;;;;;5067658;28;20086;-81
2021/12/07 09:12:55;;;;;;;7.57;2.60;;;;;;;;;;5068926;28;20484;-79
2021/12/07 09:15:21;;;;;;;5.00;2.17;;;;;;;;;;5068191;28;20036;-77
2021/12/07 09:17:46;;;;;;;5.70;2.90;;;;;;;;;;5068620;28;20086;-79
2021/12/07 09:20:15;;;;;;;7.97;3.03;;;;;;;;;;5050674;28;20031;-81
2021/12/07 09:22:42;;;;;;;7.68;3.45;;;;;;;;;;5072108;28;20043;-78
2021/12/07 09:25:07;;;;;;;5.45;2.92;;;;;;;;;;5084510;28;20027;-79
2021/12/07 09:27:33;;;;;;;4.95;2.80;;;;;;;;;;5085560;28;20110;-67
2021/12/07 09:29:58;;;;;;;6.57;3.22;;;;;;;;;;5086659;28;20032;-67
2021/12/07 09:32:23;;;;;;;6.53;3.10;;;;;;;;;;5070376;28;20035;-67
2021/12/07 09:34:49;;;;;;;6.15;3.20;;;;;;;;;;5087841;28;20036;-67
2021/12/07 09:37:15;;;;;;;10.20;4.15;;;;;;;;;;5087463;28;20025;-66
2021/12/07 09:39:40;;;;;;;6.57;3.28;;;;;;;;;;5088473;28;20044;-67
2021/12/07 09:42:05;;;;;;;7.93;3.13;;;;;;;;;;5087072;28;20028;-66
2021/12/07 09:44:31;;;;;;;8.13;4.30;;;;;;;;;;5086424;28;20070;-67
2021/12/07 09:46:56;;;;;;;7.57;3.92;;;;;;;;;;5088040;28;20097;-67
2021/12/07 09:49:22;;;;;;;5.68;3.10;;;;;;;;;;5088325;28;20043;-67
2021/12/07 09:51:47;;;;;;;7.50;3.10;;;;;;;;;;5086611;28;20074;-68
2021/12/07 09:54:13;;;;;;;7.53;2.92;;;;;;;;;;5086247;28;20024;-67
2021/12/07 09:56:39;;;;;;;7.63;3.00;;;;;;;;;;5084607;28;20119;-67
2021/12/07 09:59:05;;;;;;;5.25;3.22;;;;;;;;;;5086190;28;20165;-65
2021/12/07 10:01:31;;;;;;;9.57;3.05;;;;;;;;;;5068064;28;20020;-68
2021/12/07 10:03:57;;;;;;;7.05;2.83;;;;;;;;;;5086178;28;20096;-68
2021/12/07 10:06:22;;;;;;;5.90;2.92;;;;;;;;;;5071282;28;20032;-67
2021/12/07 10:08:48;;;;;;;6.03;2.80;;;;;;;;;;5068190;28;20040;-67
2021/12/07 10:11:14;;;;;;;5.72;2.70;;;;;;;;;;5068000;28;20025;-67
2021/12/07 10:13:40;;;;;;;6.72;2.95;;;;;;;;;;5050181;28;20030;-67
2021/12/07 10:16:06;;;;;;;4.40;2.65;;;;;;;;;;5067902;28;20032;-67
2021/12/07 10:18:33;;;;;;;4.13;2.55;;;;;;;;;;5064714;28;20106;-67
2021/12/07 10:21:00;;;;;;;5.65;2.72;;;;;;;;;;5081166;28;20028;-67
2021/12/07 10:23:28;;;;;;;8.85;2.92;;;;;;;;;;5077818;28;20115;-67
2021/12/07 10:26:14;;;;;;;7.20;2.58;;;;;;;;;;5072776;28;20475;-67
2021/12/07 10:28:44;;;;;;;7.32;2.60;;;;;;;;;;5067060;28;20055;-67
2021/12/07 10:31:09;;;;;;;4.75;2.30;;;;;;;;;;5050151;28;20059;-67
2021/12/07 10:33:35;;;;;;;8.55;2.55;;;;;;;;;;5067762;28;20028;-68
2021/12/07 10:36:08;;;;;;;5.22;2.40;;;;;;;;;;5067794;28;20102;-67
2021/12/07 10:38:34;;;;;;;4.50;2.05;;;;;;;;;;5067428;28;20050;-68
2021/12/07 10:41:02;;;;;;;4.72;2.65;;;;;;;;;;5048971;28;20442;-68
2021/12/07 10:43:45;;;;;;;6.38;2.03;;;;;;;;;;5066198;28;20040;-67
2021/12/07 10:46:43;;;;;;;4.28;2.10;;;;;;;;;;5066334;28;20044;-66
2021/12/07 10:49:29;;;;;;;3.38;1.88;;;;;;;;;;5044474;28;20059;-69
2021/12/07 10:51:55;;;;;;;4.93;2.00;;;;;;;;;;5067197;28;20098;-66
2021/12/07 10:54:21;;;;;;;4.65;2.13;;;;;;;;;;5073312;28;20039;-68
2021/12/07 10:56:46;;;;;;;7.53;2.10;;;;;;;;;;5088794;28;20062;-65
2021/12/07 10:59:13;;;;;;;5.20;2.10;;;;;;;;;;5091370;28;20028;-66
2021/12/07 11:01:40;;;;;;;5.55;2.30;;;;;;;;;;5088860;28;20123;-66
2021/12/07 11:04:18;;;;;;;3.90;1.92;;;;;;;;;;5067531;28;20512;-67
2021/12/07 11:07:02;;;;;;;3.78;1.50;;;;;;;;;;5070493;28;20036;-66
2021/12/07 11:09:27;;;;;;;3.63;1.75;;;;;;;;;;5070644;28;20036;-67
2021/12/07 11:12:10;;;;;;;4.65;2.05;;;;;;;;;;5070760;28;20371;-67
2021/12/07 11:14:57;;;;;;;7.53;2.00;;;;;;;;;;5070624;28;20076;-66
2021/12/07 11:17:24;;;;;;;3.75;1.80;;;;;;;;;;5052929;28;20083;-67
2021/12/07 11:19:50;;;;;;;6.38;1.85;;;;;;;;;;5076683;28;20363;-67
2021/12/07 11:22:17;;;;;;;4.57;1.52;;;;;;;;;;5070249;28;20036;-67
2021/12/07 11:24:44;;;;;;;4.93;1.65;;;;;;;;;;5069419;28;20239;-67
2021/12/07 11:30:04;;;;;;;4.40;1.70;;;;;;;;;;5069461;28;20093;-67
2021/12/07 11:32:30;;;;;;;4.13;1.60;;;;;;;;;;5079502;28;20064;-67
2021/12/07 11:35:08;;;;;;;1.90;1.20;;;;;;;;;;5075991;28;20078;-67
2021/12/07 11:37:35;;;;;;;2.60;1.38;;;;;;;;;;5088720;28;20060;-67
2021/12/07 11:40:02;;;;;;;3.13;1.33;;;;;;;;;;5061839;28;20120;-67
2021/12/07 11:42:29;;;;;;;3.22;1.40;;;;;;;;;;5086105;28;20119;-67
2021/12/07 11:44:56;;;;;;;3.47;1.08;;;;;;;;;;5086641;28;20550;-67
2021/12/07 11:47:33;;;;;;;3.42;1.55;;;;;;;;;;5085469;28;20024;-67
2021/12/07 11:50:00;;;;;;;3.67;1.48;;;;;;;;;;5065943;28;20451;-66
2021/12/07 11:52:25;;;;;;;3.60;1.40;;;;;;;;;;5085817;28;20604;-67
2021/12/07 11:54:52;;;;;;;2.53;1.20;;;;;;;;;;5061793;28;20023;-67
2021/12/07 11:57:18;;;;;;;4.30;1.60;;;;;;;;;;5066389;28;20040;-67
2021/12/07 11:59:45;;;;;;;2.78;1.38;;;;;;;;;;5066492;28;20537;-67
2021/12/07 12:02:10;;;;;;;3.50;1.27;;;;;;;;;;5066675;28;20527;-68
2021/12/07 12:04:36;;;;;;;1.63;1.00;;;;;;;;;;5066851;28;20068;-66
2021/12/07 12:07:03;;;;;;;4.25;1.25;;;;;;;;;;5040959;28;20043;-67
2021/12/07 12:09:28;;;;;;;3.90;1.60;;;;;;;;;;5054621;28;20032;-68
2021/12/07 12:12:16;;;;;;;6.65;1.60;;;;;;;;;;5088267;28;20058;-67
2021/12/07 12:14:46;;;;;;;2.90;1.23;;;;;;;;;;5071107;28;20039;-67
2021/12/07 12:17:17;;;;;;;3.33;1.23;;;;;;;;;;5089643;28;20090;-66
2021/12/07 12:20:01;;;;;;;4.10;1.40;;;;;;;;;;5071908;28;20127;-66
2021/12/07 12:22:37;;;;;;;2.58;1.10;;;;;;;;;;5087957;28;20050;-67
2021/12/07 12:25:10;;;;;;;3.17;1.30;;;;;;;;;;5089397;28;20158;-67
2021/12/07 12:27:37;;;;;;;4.82;1.33;;;;;;;;;;5087976;28;20043;-67
2021/12/07 12:30:15;;;;;;;3.00;1.17;;;;;;;;;;5071449;28;20024;-67
2021/12/07 12:32:45;;;;;;;3.95;1.30;;;;;;;;;;5066484;28;20448;-67
2021/12/07 12:35:11;;;;;;;3.35;1.30;;;;;;;;;;5050830;28;20135;-67
2021/12/07 12:37:37;;;;;;;4.03;1.25;;;;;;;;;;5069065;28;20032;-66
2021/12/07 12:40:10;;;;;;;4.25;1.55;;;;;;;;;;5066435;28;20037;-65
2021/12/07 12:42:38;;;;;;;2.25;1.30;;;;;;;;;;5051235;28;20498;-67
2021/12/07 12:45:03;;;;;;;4.55;1.13;;;;;;;;;;5069138;28;20021;-67
2021/12/07 12:47:30;;;;;;;3.22;1.33;;;;;;;;;;5069476;28;20025;-67
2021/12/07 12:50:08;;;;;;;2.53;1.25;;;;;;;;;;5069260;28;20036;-67
2021/12/07 12:52:42;;;;;;;2.45;1.20;;;;;;;;;;5069134;28;20051;-66
2021/12/07 12:55:25;;;;;;;6.63;1.60;;;;;;;;;;5051495;28;20032;-66
2021/12/07 12:57:51;;;;;;;7.40;1.65;;;;;;;;;;5067918;28;20099;-66
2021/12/07 13:00:16;;;;;;;6.45;1.38;;;;;;;;;;5051537;28;20068;-67
2021/12/07 13:02:46;;;;;;;2.50;1.40;;;;;;;;;;5067445;28;20414;-67
2021/12/07 13:05:15;;;;;;;4.07;1.50;;;;;;;;;;5050495;28;20033;-67
2021/12/07 13:07:40;;;;;;;2.28;1.23;;;;;;;;;;5051221;28;20102;-67
2021/12/07 13:10:07;;;;;;;3.58;1.00;;;;;;;;;;5068906;28;20156;-67
2021/12/07 13:12:40;;;;;;;3.55;2.00;;;;;;;;;;5034452;28;20107;-67
2021/12/07 13:15:10;;;;;;;2.85;1.23;;;;;;;;;;5050029;28;20029;-66
2021/12/07 13:17:39;;;;;;;2.53;1.30;;;;;;;;;;5067287;28;20040;-66
2021/12/07 13:20:04;;;;;;;3.47;1.83;;;;;;;;;;5068685;28;20028;-66
2021/12/07 13:22:45;;;;;;;6.32;1.65;;;;;;;;;;5069097;28;20029;-66
2021/12/07 13:25:12;;;;;;;2.38;1.15;;;;;;;;;;5054291;28;20040;-68
2021/12/07 13:27:55;;;;;;;5.05;1.63;;;;;;;;;;5069011;28;20036;-66
2021/12/07 13:30:21;;;;;;;4.15;1.40;;;;;;;;;;5068637;28;20171;-66
2021/12/07 13:33:11;;;;;;;4.53;1.50;;;;;;;;;;5050773;28;20115;-67
2021/12/07 13:35:36;;;;;;;4.28;1.40;;;;;;;;;;5034322;28;20066;-66
2021/12/07 13:38:13;;;;;;;4.28;1.10;;;;;;;;;;5068761;28;20080;-66
2021/12/07 13:40:38;;;;;;;3.28;1.10;;;;;;;;;;5068944;28;20040;-67
2021/12/07 13:43:04;;;;;;;2.45;0.93;;;;;;;;;;5068792;28;20387;-66
2021/12/07 13:45:29;;;;;;;2.45;1.10;;;;;;;;;;5068431;28;20032;-66
2021/12/07 13:47:55;;;;;;;5.82;1.10;;;;;;;;;;5068607;28;20090;-66
2021/12/07 13:50:23;;;;;;;3.33;1.90;;;;;;;;;;5064381;28;20048;-67
2021/12/07 13:52:50;;;;;;;3.83;1.50;;;;;;;;;;5067648;28;20032;-65
2021/12/07 13:55:18;;;;;;;2.33;1.30;;;;;;;;;;5068462;28;20036;-68
2021/12/07 13:57:46;;;;;;;3.72;1.10;;;;;;;;;;5050139;28;20041;-65
2021/12/07 14:00:38;;;;;;;3.42;0.88;;;;;;;;;;5084671;28;20057;-66
2021/12/07 14:03:05;;;;;;;1.48;0.88;;;;;;;;;;5086509;28;20054;-66
2021/12/07 14:05:32;;;;;;;3.97;0.95;;;;;;;;;;5070552;28;20058;-66
2021/12/07 14:07:59;;;;;;;3.40;1.10;;;;;;;;;;5088117;28;20028;-66
2021/12/07 14:10:26;;;;;;;2.22;1.10;;;;;;;;;;5070230;28;20086;-65
2021/12/07 14:12:56;;;;;;;2.58;1.10;;;;;;;;;;5088046;28;20028;-66
2021/12/07 14:15:27;;;;;;;2.85;1.20;;;;;;;;;;5070377;28;20032;-66
2021/12/07 14:18:04;;;;;;;2.25;1.00;;;;;;;;;;5086706;28;20036;-65
2021/12/07 14:20:41;;;;;;;3.70;1.00;;;;;;;;;;5070180;28;20032;-66
2021/12/07 14:23:17;;;;;;;2.83;1.20;;;;;;;;;;5087621;28;20660;-66
2021/12/07 14:25:57;;;;;;;4.78;1.40;;;;;;;;;;5086796;28;20463;-65
2021/12/07 14:28:24;;;;;;;2.88;1.10;;;;;;;;;;5088272;28;20043;-66
2021/12/07 14:30:49;;;;;;;2.83;1.42;;;;;;;;;;5088740;28;20115;-66
2021/12/07 14:33:16;;;;;;;2.75;1.60;;;;;;;;;;5091930;28;20135;-67
2021/12/07 14:35:42;;;;;;;5.15;1.52;;;;;;;;;;5073208;28;20028;-65
2021/12/07 14:38:07;;;;;;;3.08;1.40;;;;;;;;;;5092307;28;20062;-66
2021/12/07 14:40:33;;;;;;;4.70;1.80;;;;;;;;;;5091893;28;20043;-66
2021/12/07 14:42:59;;;;;;;6.13;1.65;;;;;;;;;;5091303;28;20024;-66
2021/12/07 14:45:25;;;;;;;3.28;1.75;;;;;;;;;;5073330;28;20131;-66
2021/12/07 14:47:50;;;;;;;3.35;1.70;;;;;;;;;;5090463;28;20570;-66
2021/12/07 14:50:16;;;;;;;5.30;2.05;;;;;;;;;;5090424;28;20126;-66
2021/12/07 14:52:41;;;;;;;4.20;1.90;;;;;;;;;;5091204;28;20036;-65
2021/12/07 14:55:07;;;;;;;7.68;1.98;;;;;;;;;;5091453;28;20036;-65
2021/12/07 14:57:35;;;;;;;6.05;2.17;;;;;;;;;;5092004;28;20472;-65
2021/12/07 15:00:02;;;;;;;4.53;1.70;;;;;;;;;;5073299;28;20380;-66
2021/12/07 15:02:30;;;;;;;5.20;2.00;;;;;;;;;;5073139;28;20462;-65
2021/12/07 15:04:56;;;;;;;6.63;2.10;;;;;;;;;;5073180;28;20094;-66
2021/12/07 15:07:30;;;;;;;2.92;1.38;;;;;;;;;;5073283;28;20047;-65
2021/12/07 15:09:56;;;;;;;5.30;1.95;;;;;;;;;;5073282;28;20040;-65
2021/12/07 15:12:21;;;;;;;4.93;2.25;;;;;;;;;;5091212;28;20031;-66
2021/12/07 15:14:55;;;;;;;3.90;1.67;;;;;;;;;;5091246;28;20024;-66
2021/12/07 15:17:20;;;;;;;3.58;1.90;;;;;;;;;;5072854;28;20040;-65
2021/12/07 15:19:45;;;;;;;4.65;1.73;;;;;;;;;;5090896;28;20510;-66
2021/12/07 15:22:13;;;;;;;4.65;1.88;;;;;;;;;;5089960;28;20058;-65
2021/12/07 15:24:39;;;;;;;4.25;2.03;;;;;;;;;;5090619;28;20044;-65
2021/12/07 15:27:05;;;;;;;5.05;2.10;;;;;;;;;;5090711;28;20039;-65
2021/12/07 15:29:32;;;;;;;4.80;2.08;;;;;;;;;;5089636;28;20068;-65
2021/12/07 15:32:01;;;;;;;4.10;1.73;;;;;;;;;;5072470;28;20035;-65
2021/12/07 15:34:27;;;;;;;3.80;1.70;;;;;;;;;;5072909;28;20056;-65
2021/12/07 15:36:57;;;;;;;3.67;1.63;;;;;;;;;;5090825;28;20048;-65
2021/12/07 15:39:28;;;;;;;4.53;1.50;;;;;;;;;;5091100;28;20039;-65
2021/12/07 15:41:55;;;;;;;4.18;1.77;;;;;;;;;;5089172;28;20042;-66
2021/12/07 15:44:28;;;;;;;4.10;1.60;;;;;;;;;;5090459;28;20032;-65
2021/12/07 15:47:15;;;;;;;5.43;1.65;;;;;;;;;;5072329;28;20090;-66
2021/12/07 15:49:46;;;;;;;5.13;1.90;;;;;;;;;;5056036;28;20073;-66
2021/12/07 15:52:14;;;;;;;6.97;2.17;;;;;;;;;;5072441;28;20036;-66
2021/12/07 15:54:52;;;;;;;5.47;2.00;;;;;;;;;;5088497;28;20040;-66
2021/12/07 15:57:17;;;;;;;6.32;2.30;;;;;;;;;;5088686;28;20036;-67
2021/12/07 15:59:53;;;;;;;6.30;2.00;;;;;;;;;;5090521;28;20494;-67
2021/12/07 16:02:21;;;;;;;5.28;2.00;;;;;;;;;;5089157;28;20044;-66
2021/12/07 16:04:47;;;;;;;6.72;2.20;;;;;;;;;;5088731;28;20035;-66
2021/12/07 16:07:20;;;;;;;7.05;2.72;;;;;;;;;;5090068;28;20032;-73
2021/12/07 16:09:46;;;;;;;4.95;2.13;;;;;;;;;;5072336;28;20587;-76
2021/12/07 16:12:12;;;;;;;4.70;2.00;;;;;;;;;;5089423;28;20111;-74
2021/12/07 16:14:38;;;;;;;8.02;2.40;;;;;;;;;;5089491;28;20054;-76
2021/12/07 16:17:04;;;;;;;5.60;2.33;;;;;;;;;;5088645;28;20454;-76
2021/12/07 16:19:29;;;;;;;5.18;2.08;;;;;;;;;;5088373;28;20032;-75
2021/12/07 16:21:55;;;;;;;5.22;2.50;;;;;;;;;;5087990;28;20028;-76
2021/12/07 16:24:22;;;;;;;5.32;2.63;;;;;;;;;;5088045;28;20388;-76
2021/12/07 16:26:50;;;;;;;6.00;2.63;;;;;;;;;;5086483;28;20440;-76
2021/12/07 16:29:17;;;;;;;4.22;2.70;;;;;;;;;;5088361;28;20071;-74
2021/12/07 16:31:43;;;;;;;5.60;2.45;;;;;;;;;;5086535;28;20027;-75